createdAt,value
2022-12-19T00:01:48.649Z,-7.46
2022-12-19T00:04:19.854Z,-7.56
2022-12-19T00:06:47.293Z,-7.63
2022-12-19T00:09:14.391Z,-7.77
2022-12-19T00:11:41.680Z,-7.88
2022-12-19T00:14:11.390Z,-7.83
2022-12-19T00:16:38.692Z,-7.85
2022-12-19T00:19:06.075Z,-7.98
2022-12-19T00:21:34.896Z,-8.02
2022-12-19T00:24:20.985Z,-8.11
2022-12-19T00:26:49.956Z,-8.10
2022-12-19T00:29:17.311Z,-8.08
2022-12-19T00:31:44.914Z,-8.08
2022-12-19T00:34:14.949Z,-8.19
2022-12-19T00:36:42.547Z,-8.20
2022-12-19T00:39:10.582Z,-8.10
2022-12-19T00:41:42.116Z,-7.94
2022-12-19T00:44:12.793Z,-7.62
2022-12-19T00:46:41.278Z,-7.53
2022-12-19T00:49:08.548Z,-7.65
2022-12-19T00:51:37.164Z,-7.68
2022-12-19T00:54:06.657Z,-7.71
2022-12-19T00:56:37.287Z,-7.59
2022-12-19T00:59:07.283Z,-7.53
2022-12-19T01:01:36.924Z,-7.44
2022-12-19T01:06:54.173Z,-7.48
2022-12-19T01:09:25.214Z,-7.54
2022-12-19T01:12:10.879Z,-7.69
2022-12-19T01:14:37.939Z,-7.77
2022-12-19T01:17:05.043Z,-7.82
2022-12-19T01:19:32.381Z,-7.88
2022-12-19T01:21:59.469Z,-8.06
2022-12-19T01:24:27.377Z,-8.07
2022-12-19T01:26:54.623Z,-8.09
2022-12-19T01:29:21.796Z,-8.25
2022-12-19T01:31:48.933Z,-8.18
2022-12-19T01:34:16.134Z,-8.07
2022-12-19T01:36:43.321Z,-7.83
2022-12-19T01:39:10.442Z,-7.91
2022-12-19T01:41:37.600Z,-7.97
2022-12-19T01:44:06.762Z,-7.71
2022-12-19T01:46:46.016Z,-7.55
2022-12-19T01:49:31.502Z,-7.53
2022-12-19T01:52:02.821Z,-7.54
2022-12-19T01:54:36.256Z,-7.58
2022-12-19T01:57:06.655Z,-7.39
2022-12-19T01:59:44.104Z,-7.36
2022-12-19T02:02:19.390Z,-7.58
2022-12-19T02:04:47.529Z,-7.62
2022-12-19T02:07:16.639Z,-7.59
2022-12-19T02:09:50.336Z,-7.51
2022-12-19T02:12:26.722Z,-7.55
2022-12-19T02:14:57.305Z,-7.52
2022-12-19T02:17:54.511Z,-7.58
2022-12-19T02:20:30.560Z,-7.41
2022-12-19T02:23:28.812Z,-7.47
2022-12-19T02:26:33.541Z,-7.46
2022-12-19T02:29:11.466Z,-7.28
2022-12-19T02:31:47.672Z,-7.34
2022-12-19T02:34:49.750Z,-7.37
2022-12-19T02:37:30.957Z,-7.19
2022-12-19T02:40:23.562Z,-7.00
2022-12-19T02:42:56.625Z,-6.99
2022-12-19T02:45:28.559Z,-6.83
2022-12-19T02:47:58.847Z,-6.89
2022-12-19T02:50:47.906Z,-6.81
2022-12-19T02:53:22.397Z,-6.79
2022-12-19T02:56:17.594Z,-6.82
2022-12-19T02:58:50.711Z,-6.96
2022-12-19T03:01:29.765Z,-6.98
2022-12-19T03:04:05.617Z,-7.20
2022-12-19T03:06:41.932Z,-7.09
2022-12-19T03:09:20.429Z,-6.95
2022-12-19T03:11:49.883Z,-6.92
2022-12-19T03:14:19.688Z,-7.00
2022-12-19T03:16:47.257Z,-7.03
2022-12-19T03:19:14.883Z,-6.74
2022-12-19T03:21:44.739Z,-6.37
2022-12-19T03:24:13.155Z,-6.31
2022-12-19T03:27:05.877Z,-6.40
2022-12-19T03:29:39.262Z,-6.48
2022-12-19T03:32:10.853Z,-6.37
2022-12-19T03:35:07.283Z,-6.14
2022-12-19T03:37:38.484Z,-6.14
2022-12-19T03:40:10.344Z,-6.19
2022-12-19T03:42:58.194Z,-6.25
2022-12-19T03:45:44.565Z,-5.97
2022-12-19T03:48:32.380Z,-5.86
2022-12-19T03:50:59.494Z,-5.78
2022-12-19T03:53:53.667Z,-5.78
2022-12-19T03:56:47.864Z,-5.83
2022-12-19T03:59:30.480Z,-5.95
2022-12-19T04:01:58.694Z,-5.98
2022-12-19T04:04:26.637Z,-6.06
2022-12-19T04:06:54.830Z,-6.32
2022-12-19T04:09:23.736Z,-6.25
2022-12-19T04:11:54.568Z,-6.21
2022-12-19T04:14:37.139Z,-6.05
2022-12-19T04:17:26.028Z,-6.18
2022-12-19T04:20:01.203Z,-6.20
2022-12-19T04:22:56.865Z,-6.42
2022-12-19T04:25:39.185Z,-6.53
2022-12-19T04:28:10.806Z,-6.71
2022-12-19T04:30:42.540Z,-6.80
2022-12-19T04:33:09.721Z,-6.93
2022-12-19T04:35:37.084Z,-6.96
2022-12-19T04:38:04.569Z,-6.95
2022-12-19T04:40:37.939Z,-7.07
2022-12-19T04:43:08.525Z,-7.10
2022-12-19T04:45:35.952Z,-7.04
2022-12-19T04:48:03.994Z,-7.18
2022-12-19T04:50:33.251Z,-7.14
2022-12-19T04:53:00.953Z,-7.20
2022-12-19T04:55:28.037Z,-7.27
2022-12-19T04:57:55.245Z,-7.25
2022-12-19T05:00:22.371Z,-7.13
2022-12-19T05:02:49.618Z,-7.02
2022-12-19T05:05:18.945Z,-7.02
2022-12-19T05:07:47.082Z,-6.98
2022-12-19T05:10:14.898Z,-7.14
2022-12-19T05:12:42.021Z,-7.33
2022-12-19T05:15:09.577Z,-7.33
2022-12-19T05:17:36.855Z,-7.27
2022-12-19T05:20:04.853Z,-7.38
2022-12-19T05:22:31.870Z,-7.38
2022-12-19T05:24:58.910Z,-7.18
2022-12-19T05:27:26.058Z,-7.03
2022-12-19T05:29:53.281Z,-6.82
2022-12-19T05:32:20.799Z,-6.74
2022-12-19T05:34:47.958Z,-6.75
2022-12-19T05:37:15.199Z,-6.66
2022-12-19T05:39:42.397Z,-6.84
2022-12-19T05:42:12.307Z,-6.82
2022-12-19T05:44:40.081Z,-7.01
2022-12-19T05:47:07.091Z,-7.05
2022-12-19T05:49:34.315Z,-7.10
2022-12-19T05:52:01.539Z,-7.08
2022-12-19T05:54:28.712Z,-7.09
2022-12-19T05:56:56.541Z,-6.90
2022-12-19T05:59:23.827Z,-6.87
2022-12-19T06:01:50.899Z,-6.99
2022-12-19T06:04:18.059Z,-7.15
2022-12-19T06:06:45.236Z,-7.11
2022-12-19T06:09:12.405Z,-7.18
2022-12-19T06:11:39.448Z,-7.08
2022-12-19T06:14:07.709Z,-6.92
2022-12-19T06:16:34.795Z,-6.92
2022-12-19T06:19:02.001Z,-6.89
2022-12-19T06:21:29.135Z,-6.75
2022-12-19T06:23:56.356Z,-6.83
2022-12-19T06:26:23.686Z,-6.88
2022-12-19T06:28:52.384Z,-7.03
2022-12-19T06:31:21.789Z,-7.09
2022-12-19T06:33:49.489Z,-7.16
2022-12-19T06:36:22.329Z,-7.16
2022-12-19T06:38:50.657Z,-7.04
2022-12-19T06:41:37.152Z,-6.95
2022-12-19T06:44:06.663Z,-6.88
2022-12-19T06:46:34.186Z,-6.73
2022-12-19T06:49:01.255Z,-6.66
2022-12-19T06:51:28.507Z,-6.88
2022-12-19T06:53:55.792Z,-6.82
2022-12-19T06:56:23.614Z,-6.69
2022-12-19T06:58:51.139Z,-6.49
2022-12-19T07:01:34.304Z,-6.22
2022-12-19T07:04:01.673Z,-6.32
2022-12-19T07:06:28.805Z,-6.36
2022-12-19T07:08:56.129Z,-6.49
2022-12-19T07:11:23.200Z,-6.48
2022-12-19T07:13:50.298Z,-6.21
2022-12-19T07:16:17.544Z,-6.18
2022-12-19T07:18:44.748Z,-6.21
2022-12-19T07:21:12.013Z,-6.28
2022-12-19T07:23:39.514Z,-6.15
2022-12-19T07:26:06.841Z,-6.13
2022-12-19T07:28:34.989Z,-6.04
2022-12-19T07:31:02.173Z,-5.83
2022-12-19T07:33:29.328Z,-5.70
2022-12-19T07:35:56.645Z,-5.88
2022-12-19T07:38:23.731Z,-5.71
2022-12-19T07:40:50.948Z,-5.55
2022-12-19T07:43:18.096Z,-5.28
2022-12-19T07:45:45.275Z,-5.01
2022-12-19T07:48:12.563Z,-5.03
2022-12-19T07:50:39.665Z,-4.81
2022-12-19T07:53:06.763Z,-4.63
2022-12-19T07:55:33.893Z,-4.54
2022-12-19T07:58:00.994Z,-4.53
2022-12-19T08:00:28.080Z,-4.31
2022-12-19T08:02:55.355Z,-4.20
2022-12-19T08:09:27.923Z,-3.07
2022-12-19T08:11:55.556Z,-1.40
2022-12-19T08:14:22.739Z,1.45
2022-12-19T08:17:19.356Z,3.63
2022-12-19T08:19:37.091Z,4.65
2022-12-19T08:22:04.211Z,5.22
2022-12-19T08:24:31.407Z,5.86
2022-12-19T08:26:58.501Z,6.20
2022-12-19T08:29:25.703Z,6.54
2022-12-19T08:31:52.810Z,6.29
2022-12-19T08:34:20.121Z,5.60
2022-12-19T08:36:47.505Z,4.72
2022-12-19T08:39:14.733Z,3.87
2022-12-19T08:41:41.812Z,3.64
2022-12-19T08:44:11.441Z,4.86
2022-12-19T08:46:38.751Z,6.45
2022-12-19T08:49:05.997Z,8.63
2022-12-19T08:51:33.254Z,9.21
2022-12-19T08:54:00.329Z,9.92
2022-12-19T08:56:28.257Z,10.85
2022-12-19T08:58:56.182Z,10.63
2022-12-19T09:01:24.237Z,10.03
2022-12-19T09:04:44.124Z,8.33
2022-12-19T09:06:38.837Z,6.66
2022-12-19T09:09:06.034Z,5.63
2022-12-19T09:11:33.437Z,4.41
2022-12-19T09:14:05.115Z,3.38
2022-12-19T09:16:32.248Z,2.70
2022-12-19T09:18:59.418Z,2.37
2022-12-19T09:21:31.775Z,1.94
2022-12-19T09:24:07.066Z,1.35
2022-12-19T09:26:35.559Z,0.79
2022-12-19T09:29:11.000Z,0.84
2022-12-19T09:31:56.519Z,0.97
2022-12-19T09:34:38.096Z,0.85
2022-12-19T09:37:08.278Z,0.92
2022-12-19T09:39:36.417Z,0.89
2022-12-19T09:42:40.537Z,1.20
2022-12-19T09:45:31.745Z,1.56
2022-12-19T09:48:01.748Z,1.47
2022-12-19T09:50:50.916Z,1.67
2022-12-19T09:53:39.397Z,1.71
2022-12-19T09:56:10.992Z,1.76
2022-12-19T09:58:43.264Z,1.92
2022-12-19T10:01:24.533Z,2.10
2022-12-19T10:04:05.793Z,2.43
2022-12-19T10:07:11.367Z,2.60
2022-12-19T10:11:06.012Z,2.21
2022-12-19T10:12:39.194Z,2.27
2022-12-19T10:15:08.688Z,2.00
2022-12-19T10:17:58.246Z,2.11
2022-12-19T10:20:36.887Z,1.69
2022-12-19T10:23:31.917Z,1.91
2022-12-19T10:26:11.480Z,1.80
2022-12-19T10:28:41.277Z,2.07
2022-12-19T10:31:23.288Z,2.23
2022-12-19T10:34:01.572Z,2.23
2022-12-19T10:37:11.967Z,2.45
2022-12-19T10:39:32.046Z,2.70
2022-12-19T10:42:22.068Z,2.57
2022-12-19T10:44:49.693Z,2.51
2022-12-19T10:47:17.624Z,2.66
2022-12-19T10:49:45.181Z,2.92
2022-12-19T10:52:13.486Z,3.84
2022-12-19T10:54:43.776Z,4.80
2022-12-19T10:57:25.721Z,5.75
2022-12-19T11:00:04.871Z,6.88
2022-12-19T11:02:38.414Z,8.49
2022-12-19T11:05:25.286Z,9.38
2022-12-19T11:08:07.963Z,11.24
2022-12-19T11:12:43.409Z,11.30
2022-12-19T11:19:52.768Z,9.83
2022-12-19T11:19:54.237Z,10.93
2022-12-19T11:29:16.200Z,7.89
2022-12-19T11:29:18.726Z,9.51
2022-12-19T11:29:36.671Z,7.41
2022-12-19T11:30:41.542Z,6.85
2022-12-19T11:34:21.481Z,5.25
2022-12-19T11:37:00.470Z,4.96
2022-12-19T11:39:43.925Z,4.99
2022-12-19T11:42:29.628Z,4.84
2022-12-19T11:45:11.848Z,4.45
2022-12-19T11:47:54.809Z,4.43
2022-12-19T11:50:27.291Z,4.37
2022-12-19T11:53:05.666Z,4.43
2022-12-19T11:55:45.759Z,4.00
2022-12-19T11:58:13.652Z,3.95
2022-12-19T12:00:46.241Z,4.20
2022-12-19T12:04:01.942Z,4.17
2022-12-19T12:06:45.385Z,4.42
2022-12-19T12:12:24.070Z,4.85
2022-12-19T12:16:59.310Z,5.10
2022-12-19T12:28:23.034Z,5.15
2022-12-19T12:31:01.643Z,5.08
2022-12-19T12:31:14.855Z,3.89
2022-12-19T12:31:22.092Z,5.13
2022-12-19T12:31:38.992Z,3.83
2022-12-19T12:32:02.524Z,4.43
2022-12-19T12:35:30.667Z,3.90
2022-12-19T12:39:00.762Z,2.77
2022-12-19T12:42:02.850Z,2.62
2022-12-19T12:44:45.525Z,2.75
2022-12-19T12:47:15.662Z,2.67
2022-12-19T12:50:07.327Z,2.46
2022-12-19T12:52:41.665Z,2.52
2022-12-19T12:55:41.470Z,2.43
2022-12-19T12:58:46.280Z,2.43
2022-12-19T13:01:29.309Z,2.62
2022-12-19T13:04:05.744Z,2.54
2022-12-19T13:06:34.518Z,2.45
2022-12-19T13:09:22.308Z,2.34
2022-12-19T13:12:10.867Z,2.30
2022-12-19T13:14:38.227Z,2.25
2022-12-19T13:17:06.903Z,2.28
2022-12-19T13:19:36.250Z,2.27
2022-12-19T13:22:37.752Z,2.10
2022-12-19T13:25:40.394Z,1.91
2022-12-19T13:28:21.141Z,2.02
2022-12-19T13:31:19.771Z,1.82
2022-12-19T13:33:56.219Z,1.67
2022-12-19T13:39:50.024Z,1.38
2022-12-19T13:40:08.777Z,1.21
2022-12-19T13:43:10.019Z,0.87
2022-12-19T13:45:41.547Z,0.63
2022-12-19T13:48:16.232Z,0.75
2022-12-19T13:50:44.055Z,0.57
2022-12-19T13:53:19.150Z,0.60
2022-12-19T13:55:46.600Z,0.50
2022-12-19T13:58:34.213Z,0.15
2022-12-19T14:01:06.795Z,0.13
2022-12-19T14:03:43.491Z,0.08
2022-12-19T14:06:20.668Z,0.20
2022-12-19T14:11:06.120Z,0.17
2022-12-19T14:13:42.026Z,0.37
2022-12-19T14:14:47.199Z,0.28
2022-12-19T14:17:16.243Z,-0.02
2022-12-19T14:19:46.876Z,-0.32
2022-12-19T14:22:25.286Z,-0.43
2022-12-19T14:25:32.126Z,-0.01
2022-12-19T14:28:18.108Z,-0.08
2022-12-19T14:31:05.392Z,0.09
2022-12-19T14:33:44.839Z,0.06
2022-12-19T14:36:28.171Z,-0.31
2022-12-19T14:39:25.272Z,-0.61
2022-12-19T14:42:07.447Z,-1.00
2022-12-19T14:52:34.499Z,-1.02
2022-12-19T14:54:06.517Z,-1.10
2022-12-19T14:54:18.171Z,-1.11
2022-12-19T14:54:44.506Z,-0.95
2022-12-19T14:56:33.623Z,-0.96
2022-12-19T14:59:23.195Z,-1.27
2022-12-19T15:02:14.858Z,-1.12
2022-12-19T15:05:08.043Z,-1.36
2022-12-19T15:07:35.396Z,-1.34
2022-12-19T15:11:04.089Z,-1.48
2022-12-19T15:14:47.838Z,-1.53
2022-12-19T15:16:05.946Z,-1.48
2022-12-19T15:18:33.203Z,-1.50
2022-12-19T15:21:02.730Z,-1.72
2022-12-19T15:23:30.453Z,-1.48
2022-12-19T15:26:06.216Z,-1.35
2022-12-19T15:28:39.131Z,-1.14
2022-12-19T15:31:23.514Z,-1.15
2022-12-19T15:36:37.892Z,-0.97
2022-12-19T15:39:05.111Z,-0.89
2022-12-19T15:41:32.411Z,-0.98
2022-12-19T15:44:04.200Z,-1.03
2022-12-19T15:46:32.756Z,-1.16
2022-12-19T15:49:00.039Z,-1.23
2022-12-19T15:51:27.286Z,-1.40
2022-12-19T15:53:56.935Z,-1.25
2022-12-19T15:56:34.163Z,-1.26
2022-12-19T15:59:02.752Z,-1.39
2022-12-19T16:01:32.876Z,-1.39
2022-12-19T16:04:01.202Z,-1.26
2022-12-19T16:06:28.866Z,-1.02
2022-12-19T16:08:56.676Z,-0.77
2022-12-19T16:11:24.736Z,-0.80
2022-12-19T16:13:55.743Z,-1.09
2022-12-19T16:16:23.083Z,-1.09
2022-12-19T16:18:50.331Z,-0.84
2022-12-19T16:21:27.500Z,-0.53
2022-12-19T16:24:00.526Z,-0.21
2022-12-19T16:26:36.122Z,-0.33
2022-12-19T16:29:03.536Z,-0.31
2022-12-19T16:31:30.908Z,-0.54
2022-12-19T16:33:58.191Z,-0.44
2022-12-19T16:36:25.319Z,-0.62
2022-12-19T16:38:52.522Z,-0.54
2022-12-19T16:41:23.828Z,-0.61
2022-12-19T16:43:51.645Z,-0.78
2022-12-19T16:46:21.941Z,-0.79
2022-12-19T16:48:50.077Z,-0.61
2022-12-19T16:51:23.620Z,-0.67
2022-12-19T16:53:53.393Z,-0.73
2022-12-19T16:56:41.829Z,-0.59
2022-12-19T16:59:23.535Z,-0.46
2022-12-19T17:01:51.125Z,-0.36
2022-12-19T17:04:24.140Z,-0.46
2022-12-19T17:06:52.160Z,-0.65
2022-12-19T17:09:22.181Z,-0.39
2022-12-19T17:11:53.064Z,-0.35
2022-12-19T17:14:22.542Z,-0.36
2022-12-19T17:16:55.366Z,-0.33
2022-12-19T17:19:45.131Z,-0.50
2022-12-19T17:22:16.924Z,-0.52
2022-12-19T17:24:45.859Z,-0.18
2022-12-19T17:27:13.738Z,0.27
2022-12-19T17:29:40.906Z,0.49
2022-12-19T17:32:10.429Z,0.51
2022-12-19T17:34:37.526Z,0.78
2022-12-19T17:37:05.398Z,1.09
2022-12-19T17:39:34.195Z,1.25
2022-12-19T17:42:06.844Z,1.31
2022-12-19T17:44:34.467Z,1.15
2022-12-19T17:47:01.661Z,1.02
2022-12-19T17:49:31.465Z,1.03
2022-12-19T17:51:59.856Z,1.23
2022-12-19T17:54:27.602Z,1.39
2022-12-19T17:56:55.347Z,1.43
2022-12-19T17:59:22.473Z,1.46
2022-12-19T18:01:49.971Z,1.56
2022-12-19T18:04:19.625Z,1.67
2022-12-19T18:06:47.188Z,1.59
2022-12-19T18:09:19.368Z,1.56
2022-12-19T18:11:47.577Z,1.67
2022-12-19T18:14:15.381Z,1.75
2022-12-19T18:16:43.063Z,1.65
2022-12-19T18:19:18.887Z,1.53
2022-12-19T18:21:46.352Z,1.57
2022-12-19T18:24:16.547Z,1.55
2022-12-19T18:26:44.948Z,1.58
2022-12-19T18:29:12.259Z,1.50
2022-12-19T18:31:43.628Z,1.44
2022-12-19T18:34:23.469Z,1.49
2022-12-19T18:36:51.511Z,1.50
2022-12-19T18:39:23.055Z,1.40
2022-12-19T18:41:51.523Z,1.38
2022-12-19T18:44:19.182Z,1.23
2022-12-19T18:46:48.758Z,1.16
2022-12-19T18:49:16.974Z,0.84
2022-12-19T18:51:44.891Z,0.76
2022-12-19T18:54:44.360Z,1.24
2022-12-19T18:57:11.654Z,1.35
2022-12-19T18:59:38.840Z,1.50
2022-12-19T19:02:21.216Z,1.54
2022-12-19T19:04:48.577Z,1.66
2022-12-19T19:07:16.009Z,1.64
2022-12-19T19:09:43.299Z,1.60
2022-12-19T19:12:36.516Z,1.60
2022-12-19T19:15:03.918Z,1.70
2022-12-19T19:17:32.000Z,1.79
2022-12-19T19:19:59.650Z,1.88
2022-12-19T19:22:26.962Z,1.91
2022-12-19T19:24:54.131Z,1.84
2022-12-19T19:27:21.246Z,1.90
2022-12-19T19:29:48.661Z,1.79
2022-12-19T19:32:15.917Z,1.91
2022-12-19T19:34:43.464Z,1.92
2022-12-19T19:37:13.735Z,1.83
2022-12-19T19:39:41.962Z,1.80
2022-12-19T19:42:09.074Z,1.80
2022-12-19T19:44:36.275Z,1.87
2022-12-19T19:47:03.584Z,1.95
2022-12-19T19:49:30.793Z,2.03
2022-12-19T19:52:02.520Z,2.08
2022-12-19T19:54:31.474Z,2.08
2022-12-19T19:56:58.675Z,2.15
2022-12-19T19:59:28.922Z,2.02
2022-12-19T20:01:56.422Z,2.09
2022-12-19T20:04:23.751Z,2.14
2022-12-19T20:06:50.932Z,2.20
2022-12-19T20:09:18.069Z,2.27
2022-12-19T20:11:45.389Z,2.33
2022-12-19T20:14:12.847Z,2.36
2022-12-19T20:16:40.368Z,2.26
2022-12-19T20:19:07.657Z,2.35
2022-12-19T20:21:34.840Z,2.31
2022-12-19T20:24:02.130Z,2.30
2022-12-19T20:26:29.513Z,2.44
2022-12-19T20:28:56.630Z,2.33
2022-12-19T20:31:24.361Z,2.35
2022-12-19T20:33:53.753Z,2.50
2022-12-19T20:36:21.566Z,2.55
2022-12-19T20:38:49.203Z,2.58
2022-12-19T20:41:17.213Z,2.51
2022-12-19T20:43:44.953Z,2.58
2022-12-19T20:46:14.744Z,2.62
2022-12-19T20:48:42.966Z,2.64
2022-12-19T20:51:10.350Z,2.60
2022-12-19T20:53:38.635Z,2.58
2022-12-19T20:56:07.222Z,2.43
2022-12-19T20:58:36.374Z,2.38
2022-12-19T21:01:09.004Z,2.41
2022-12-19T21:03:37.311Z,2.31
2022-12-19T21:06:05.563Z,2.27
2022-12-19T21:08:33.159Z,2.30
2022-12-19T21:11:01.882Z,2.31
2022-12-19T21:13:29.147Z,2.36
2022-12-19T21:15:58.586Z,2.46
2022-12-19T21:18:27.000Z,2.41
2022-12-19T21:20:54.787Z,2.38
2022-12-19T21:23:22.970Z,2.17
2022-12-19T21:25:50.125Z,2.20
2022-12-19T21:28:17.344Z,2.32
2022-12-19T21:30:44.711Z,2.30
2022-12-19T21:33:11.836Z,2.50
2022-12-19T21:35:39.118Z,2.34
2022-12-19T21:38:06.289Z,2.40
2022-12-19T21:40:35.816Z,2.57
2022-12-19T21:43:08.077Z,2.61
2022-12-19T21:45:38.990Z,2.68
2022-12-19T21:48:06.352Z,2.72
2022-12-19T21:50:36.140Z,2.62
2022-12-19T21:53:03.235Z,2.54
2022-12-19T21:55:30.368Z,2.53
2022-12-19T21:57:57.540Z,2.38
2022-12-19T22:00:25.005Z,2.49
2022-12-19T22:03:12.707Z,2.46
2022-12-19T22:05:39.262Z,2.49
2022-12-19T22:08:06.345Z,2.52
2022-12-19T22:10:33.360Z,2.61
2022-12-19T22:13:00.438Z,2.69
2022-12-19T22:15:27.558Z,2.54
2022-12-19T22:17:54.794Z,2.56
2022-12-19T22:20:21.997Z,2.66
2022-12-19T22:22:49.104Z,2.68
2022-12-19T22:25:16.337Z,2.75
2022-12-19T22:27:43.608Z,2.71
2022-12-19T22:30:11.521Z,2.79
2022-12-19T22:32:38.720Z,2.74
2022-12-19T22:35:06.375Z,2.62
2022-12-19T22:37:33.667Z,2.62
2022-12-19T22:40:04.275Z,2.67
2022-12-19T22:42:31.437Z,2.67
2022-12-19T22:44:59.332Z,2.65
2022-12-19T22:47:26.416Z,2.41
2022-12-19T22:49:53.510Z,2.22
2022-12-19T22:52:20.631Z,2.35
2022-12-19T22:54:47.705Z,2.31
2022-12-19T22:57:15.511Z,2.34
2022-12-19T22:59:42.774Z,2.48
2022-12-19T23:02:10.020Z,2.56
2022-12-19T23:04:37.314Z,2.58
2022-12-19T23:07:04.537Z,2.48
2022-12-19T23:09:31.606Z,2.48
2022-12-19T23:11:58.748Z,2.47
2022-12-19T23:14:25.904Z,2.61
2022-12-19T23:16:53.223Z,2.52
2022-12-19T23:19:20.304Z,2.61
2022-12-19T23:21:47.578Z,2.67
2022-12-19T23:24:15.221Z,2.79
2022-12-19T23:26:42.667Z,2.71
2022-12-19T23:29:12.883Z,2.69
2022-12-19T23:31:41.757Z,2.61
2022-12-19T23:34:10.606Z,2.56
2022-12-19T23:37:09.803Z,2.52
2022-12-19T23:39:25.000Z,2.57
2022-12-19T23:41:52.064Z,2.46
2022-12-19T23:44:19.323Z,2.44
2022-12-19T23:46:46.445Z,2.43
2022-12-19T23:49:13.595Z,2.40
2022-12-19T23:51:40.649Z,2.45
2022-12-19T23:54:08.918Z,2.46
2022-12-19T23:56:36.425Z,2.65
2022-12-19T23:59:03.629Z,2.55
